createdAt,value
2019-06-15T00:00:02.142Z,0.00
2019-06-15T00:01:02.102Z,0.00
2019-06-15T00:02:02.081Z,0.00
2019-06-15T00:03:02.019Z,0.00
2019-06-15T00:04:01.982Z,0.00
2019-06-15T00:05:01.938Z,0.00
2019-06-15T00:06:01.898Z,0.00
2019-06-15T00:07:01.898Z,0.00
2019-06-15T00:08:04.605Z,0.00
2019-06-15T00:09:01.783Z,0.00
2019-06-15T00:10:01.753Z,0.00
2019-06-15T00:11:01.699Z,0.00
2019-06-15T00:12:01.684Z,0.00
2019-06-15T00:13:01.614Z,0.00
2019-06-15T00:14:01.575Z,0.00
2019-06-15T00:15:01.540Z,0.00
2019-06-15T00:16:01.503Z,0.00
2019-06-15T00:17:01.474Z,0.00
2019-06-15T00:18:01.413Z,0.00
2019-06-15T00:19:01.375Z,0.00
2019-06-15T00:20:01.335Z,0.00
2019-06-15T00:21:01.318Z,0.00
2019-06-15T00:22:01.275Z,0.00
2019-06-15T00:23:01.216Z,0.00
2019-06-15T00:24:01.173Z,0.00
2019-06-15T00:25:01.133Z,0.00
2019-06-15T00:26:01.098Z,0.00
2019-06-15T00:27:01.072Z,0.00
2019-06-15T00:28:01.012Z,0.00
2019-06-15T00:29:00.969Z,0.00
2019-06-15T00:30:00.930Z,0.00
2019-06-15T00:31:00.889Z,0.00
2019-06-15T00:32:00.871Z,0.00
2019-06-15T00:33:00.817Z,0.00
2019-06-15T00:34:00.769Z,0.00
2019-06-15T00:35:00.735Z,0.00
2019-06-15T00:36:00.687Z,0.00
2019-06-15T00:37:00.677Z,0.00
2019-06-15T00:38:00.605Z,0.00
2019-06-15T00:39:00.597Z,0.00
2019-06-15T00:40:00.559Z,0.00
2019-06-15T00:41:00.483Z,0.00
2019-06-15T00:42:00.477Z,0.00
2019-06-15T00:43:00.403Z,0.00
2019-06-15T00:44:00.361Z,0.00
2019-06-15T00:45:00.321Z,0.00
2019-06-15T00:46:00.309Z,0.00
2019-06-15T00:47:00.242Z,0.00
2019-06-15T00:48:00.205Z,0.00
2019-06-15T00:49:00.157Z,0.00
2019-06-15T00:50:00.130Z,0.00
2019-06-15T00:51:00.085Z,0.00
2019-06-15T00:52:00.057Z,0.00
2019-06-15T00:53:00.015Z,0.00
2019-06-15T00:53:59.955Z,0.00
2019-06-15T00:54:59.917Z,0.00
2019-06-15T00:55:59.875Z,0.00
2019-06-15T00:56:59.832Z,0.00
2019-06-15T00:57:59.815Z,0.00
2019-06-15T00:58:59.753Z,0.00
2019-06-15T00:59:59.715Z,0.00
2019-06-15T01:00:59.669Z,0.00
2019-06-15T01:01:59.632Z,0.00
2019-06-15T01:02:59.615Z,0.00
2019-06-15T01:03:59.550Z,0.00
2019-06-15T01:04:59.554Z,0.00
2019-06-15T01:05:59.466Z,0.00
2019-06-15T01:06:59.428Z,0.00
2019-06-15T01:07:59.411Z,0.00
2019-06-15T01:08:59.345Z,0.00
2019-06-15T01:09:59.304Z,0.00
2019-06-15T01:10:59.264Z,0.00
2019-06-15T01:11:59.226Z,0.00
2019-06-15T01:12:59.201Z,0.00
2019-06-15T01:13:59.141Z,0.00
2019-06-15T01:14:59.100Z,0.00
2019-06-15T01:15:59.066Z,0.00
2019-06-15T01:16:59.023Z,0.00
2019-06-15T01:17:59.003Z,0.00
2019-06-15T01:18:58.937Z,0.00
2019-06-15T01:19:58.902Z,0.00
2019-06-15T01:20:58.862Z,0.00
2019-06-15T01:21:58.818Z,0.00
2019-06-15T01:22:58.796Z,0.00
2019-06-15T01:23:58.737Z,0.00
2019-06-15T01:25:05.736Z,0.00
2019-06-15T01:25:58.670Z,0.00
2019-06-15T01:26:58.611Z,0.00
2019-06-15T01:27:58.593Z,0.00
2019-06-15T01:28:58.531Z,0.00
2019-06-15T01:29:58.492Z,0.00
2019-06-15T01:30:58.451Z,0.00
2019-06-15T01:31:58.409Z,0.00
2019-06-15T01:32:58.394Z,0.00
2019-06-15T01:33:58.329Z,0.00
2019-06-15T01:34:58.290Z,0.00
2019-06-15T01:35:58.250Z,0.00
2019-06-15T01:36:58.205Z,0.00
2019-06-15T01:37:58.189Z,0.00
2019-06-15T01:38:58.130Z,0.00
2019-06-15T01:39:58.084Z,0.00
2019-06-15T01:40:58.043Z,0.00
2019-06-15T01:41:58.004Z,0.00
2019-06-15T01:42:57.992Z,0.00
2019-06-15T01:43:57.979Z,0.00
2019-06-15T01:44:57.880Z,0.00
2019-06-15T01:45:57.840Z,0.00
2019-06-15T01:46:57.805Z,0.00
2019-06-15T01:47:57.769Z,0.00
2019-06-15T01:48:57.739Z,0.00
2019-06-15T01:49:57.697Z,0.00
2019-06-15T01:50:57.636Z,0.00
2019-06-15T01:51:57.596Z,0.00
2019-06-15T01:52:57.554Z,0.00
2019-06-15T01:53:57.534Z,0.00
2019-06-15T01:54:57.474Z,0.00
2019-06-15T01:55:57.434Z,0.00
2019-06-15T01:56:57.390Z,0.00
2019-06-15T01:57:57.350Z,0.00
2019-06-15T01:58:57.329Z,0.00
2019-06-15T01:59:57.268Z,0.00
2019-06-15T02:00:57.230Z,0.00
2019-06-15T02:01:57.187Z,0.00
2019-06-15T02:02:57.146Z,0.00
2019-06-15T02:03:57.129Z,0.00
2019-06-15T02:04:57.063Z,0.00
2019-06-15T02:05:57.022Z,0.00
2019-06-15T02:06:56.987Z,0.00
2019-06-15T02:07:56.943Z,0.00
2019-06-15T02:08:56.927Z,0.00
2019-06-15T02:09:56.860Z,0.00
2019-06-15T02:10:56.820Z,0.00
2019-06-15T02:11:56.780Z,0.00
2019-06-15T02:12:56.737Z,0.00
2019-06-15T02:13:56.720Z,0.00
2019-06-15T02:14:56.656Z,0.00
2019-06-15T02:15:56.615Z,0.00
2019-06-15T02:16:56.577Z,0.00
2019-06-15T02:17:56.533Z,0.00
2019-06-15T02:18:56.513Z,0.00
2019-06-15T02:19:56.451Z,0.00
2019-06-15T02:20:56.422Z,0.00
2019-06-15T02:21:56.371Z,0.00
2019-06-15T02:22:56.329Z,0.00
2019-06-15T02:23:56.311Z,0.00
2019-06-15T02:24:56.249Z,0.00
2019-06-15T02:25:56.209Z,0.00
2019-06-15T02:26:56.168Z,0.00
2019-06-15T02:27:56.143Z,0.00
2019-06-15T02:28:56.106Z,0.00
2019-06-15T02:29:56.045Z,0.00
2019-06-15T02:30:56.008Z,0.00
2019-06-15T02:31:55.974Z,0.00
2019-06-15T02:32:55.926Z,0.00
2019-06-15T02:33:55.907Z,0.00
2019-06-15T02:34:55.844Z,0.00
2019-06-15T02:35:55.803Z,0.00
2019-06-15T02:36:55.765Z,0.00
2019-06-15T02:37:55.722Z,0.00
2019-06-15T02:38:55.714Z,0.00
2019-06-15T02:39:55.658Z,0.00
2019-06-15T02:40:55.600Z,0.00
2019-06-15T02:41:55.558Z,0.00
2019-06-15T02:42:55.518Z,0.00
2019-06-15T02:43:55.498Z,0.00
2019-06-15T02:44:55.436Z,0.00
2019-06-15T02:45:55.402Z,0.00
2019-06-15T02:46:55.361Z,0.00
2019-06-15T02:47:55.319Z,0.00
2019-06-15T02:48:55.299Z,0.00
2019-06-15T02:49:55.254Z,0.00
2019-06-15T02:50:55.194Z,0.00
2019-06-15T02:51:55.185Z,0.00
2019-06-15T02:52:55.111Z,0.00
2019-06-15T02:53:55.093Z,0.00
2019-06-15T02:54:55.030Z,0.00
2019-06-15T02:55:54.990Z,0.00
2019-06-15T02:56:54.952Z,0.00
2019-06-15T02:57:54.909Z,0.00
2019-06-15T02:58:54.890Z,0.00
2019-06-15T02:59:54.833Z,0.00
2019-06-15T03:00:54.789Z,0.00
2019-06-15T03:01:54.744Z,0.00
2019-06-15T03:02:54.705Z,0.00
2019-06-15T03:03:54.699Z,0.00
2019-06-15T03:04:54.624Z,0.00
2019-06-15T03:05:54.584Z,0.00
2019-06-15T03:06:54.547Z,0.00
2019-06-15T03:07:54.502Z,0.00
2019-06-15T03:08:54.459Z,0.00
2019-06-15T03:09:54.438Z,0.00
2019-06-15T03:10:54.379Z,0.00
2019-06-15T03:11:54.337Z,0.00
2019-06-15T03:12:54.299Z,0.00
2019-06-15T03:13:54.255Z,0.00
2019-06-15T03:14:54.215Z,0.00
2019-06-15T03:15:54.197Z,0.00
2019-06-15T03:16:54.133Z,0.00
2019-06-15T03:17:54.093Z,0.00
2019-06-15T03:18:54.049Z,0.00
2019-06-15T03:19:54.013Z,5.63
2019-06-15T03:20:53.968Z,5.63
2019-06-15T03:21:53.954Z,5.63
2019-06-15T03:22:53.886Z,5.63
2019-06-15T03:23:53.850Z,5.63
2019-06-15T03:24:53.807Z,5.63
2019-06-15T03:26:05.243Z,5.63
2019-06-15T03:26:53.729Z,11.25
2019-06-15T03:27:53.713Z,11.25
2019-06-15T03:28:53.639Z,11.25
2019-06-15T03:29:53.598Z,11.25
2019-06-15T03:30:53.559Z,11.25
2019-06-15T03:31:53.518Z,16.88
2019-06-15T03:32:53.478Z,16.88
2019-06-15T03:33:53.471Z,16.88
2019-06-15T03:34:53.404Z,16.88
2019-06-15T03:35:53.354Z,22.50
2019-06-15T03:36:53.311Z,22.50
2019-06-15T03:37:53.270Z,22.50
2019-06-15T03:38:53.235Z,22.50
2019-06-15T03:39:53.225Z,28.13
2019-06-15T03:40:53.147Z,28.13
2019-06-15T03:41:53.106Z,28.13
2019-06-15T03:42:53.065Z,28.13
2019-06-15T03:43:53.023Z,33.75
2019-06-15T03:44:53.007Z,33.75
2019-06-15T03:45:52.969Z,33.75
2019-06-15T03:46:52.900Z,39.38
2019-06-15T03:47:52.863Z,39.38
2019-06-15T03:48:52.817Z,39.38
2019-06-15T03:49:52.804Z,45.00
2019-06-15T03:50:52.738Z,45.00
2019-06-15T03:51:52.696Z,50.63
2019-06-15T03:52:52.654Z,50.63
2019-06-15T03:53:52.612Z,50.63
2019-06-15T03:54:52.570Z,56.25
2019-06-15T03:55:52.555Z,56.25
2019-06-15T03:56:52.494Z,61.88
2019-06-15T03:57:52.446Z,67.50
2019-06-15T03:58:52.406Z,73.13
2019-06-15T03:59:52.364Z,78.75
2019-06-15T04:00:52.334Z,90.00
2019-06-15T04:01:52.305Z,90.00
2019-06-15T04:02:52.243Z,95.63
2019-06-15T04:03:52.199Z,101.25
2019-06-15T04:04:52.469Z,106.88
2019-06-15T04:05:52.114Z,112.50
2019-06-15T04:06:52.075Z,118.13
2019-06-15T04:07:52.057Z,123.75
2019-06-15T04:08:51.990Z,129.38
2019-06-15T04:09:51.956Z,135.00
2019-06-15T04:10:51.909Z,135.00
2019-06-15T04:11:51.870Z,140.63
2019-06-15T04:12:51.827Z,146.25
2019-06-15T04:13:51.809Z,151.88
2019-06-15T04:14:51.742Z,157.50
2019-06-15T04:15:51.701Z,163.13
2019-06-15T04:16:51.660Z,163.13
2019-06-15T04:17:51.623Z,168.75
2019-06-15T04:18:51.585Z,168.75
2019-06-15T04:19:51.557Z,163.13
2019-06-15T04:20:51.495Z,163.13
2019-06-15T04:21:51.452Z,163.13
2019-06-15T04:22:51.459Z,163.13
2019-06-15T04:23:51.370Z,168.75
2019-06-15T04:24:51.329Z,168.75
2019-06-15T04:25:51.323Z,174.38
2019-06-15T04:26:51.251Z,180.00
2019-06-15T04:27:51.207Z,185.63
2019-06-15T04:28:51.165Z,191.25
2019-06-15T04:29:51.127Z,196.88
2019-06-15T04:30:51.082Z,196.88
2019-06-15T04:31:51.105Z,191.25
2019-06-15T04:32:51.000Z,185.63
2019-06-15T04:33:50.984Z,180.00
2019-06-15T04:34:50.921Z,174.38
2019-06-15T04:35:50.877Z,163.13
2019-06-15T04:36:50.837Z,151.88
2019-06-15T04:39:22.307Z,140.63
2019-06-15T04:40:22.255Z,146.25
2019-06-15T04:41:22.223Z,151.88
2019-06-15T04:42:22.174Z,163.13
2019-06-15T04:43:22.162Z,168.75
2019-06-15T04:44:22.096Z,185.63
2019-06-15T04:45:22.053Z,202.50
2019-06-15T04:46:22.008Z,213.75
2019-06-15T04:47:21.971Z,236.25
2019-06-15T04:48:21.929Z,258.75
2019-06-15T04:49:21.920Z,270.00
2019-06-15T04:50:21.885Z,275.63
2019-06-15T04:51:21.807Z,281.25
2019-06-15T04:52:21.766Z,286.88
2019-06-15T04:53:21.721Z,292.50
2019-06-15T04:54:21.685Z,292.50
2019-06-15T04:55:21.643Z,292.50
2019-06-15T04:56:21.645Z,303.75
2019-06-15T04:57:21.582Z,303.75
2019-06-15T04:58:21.516Z,303.75
2019-06-15T04:59:21.481Z,309.38
2019-06-15T05:00:21.452Z,326.25
2019-06-15T05:01:21.410Z,354.38
2019-06-15T05:02:21.378Z,376.88
2019-06-15T05:03:21.327Z,393.75
2019-06-15T05:04:21.275Z,410.63
2019-06-15T05:05:21.233Z,444.38
2019-06-15T05:06:21.226Z,444.38
2019-06-15T05:07:21.156Z,438.75
2019-06-15T05:08:21.137Z,433.13
2019-06-15T05:09:21.074Z,433.13
2019-06-15T05:10:21.062Z,433.13
2019-06-15T05:11:20.991Z,421.88
2019-06-15T05:12:20.951Z,421.88
2019-06-15T05:13:20.910Z,410.63
2019-06-15T05:14:20.868Z,382.50
2019-06-15T05:15:20.826Z,354.38
2019-06-15T05:16:20.817Z,354.38
2019-06-15T05:17:20.746Z,360.00
2019-06-15T05:18:20.707Z,365.63
2019-06-15T05:19:20.682Z,365.63
2019-06-15T05:20:20.628Z,382.50
2019-06-15T05:21:20.638Z,393.75
2019-06-15T05:22:20.546Z,410.63
2019-06-15T05:23:20.503Z,433.13
2019-06-15T05:24:20.467Z,444.38
2019-06-15T05:25:20.429Z,444.38
2019-06-15T05:26:20.387Z,433.13
2019-06-15T05:27:20.375Z,433.13
2019-06-15T05:28:20.307Z,438.75
2019-06-15T05:29:20.267Z,438.75
2019-06-15T05:30:20.222Z,433.13
2019-06-15T05:31:20.210Z,438.75
2019-06-15T05:32:20.166Z,450.00
2019-06-15T05:33:20.101Z,455.63
2019-06-15T05:34:20.064Z,444.38
2019-06-15T05:35:20.024Z,433.13
2019-06-15T05:36:20.016Z,433.13
2019-06-15T05:37:19.941Z,421.88
2019-06-15T05:38:19.910Z,405.00
2019-06-15T05:39:19.866Z,399.38
2019-06-15T05:40:19.825Z,393.75
2019-06-15T05:41:19.815Z,399.38
2019-06-15T05:42:19.753Z,399.38
2019-06-15T05:43:19.711Z,399.38
2019-06-15T05:44:19.664Z,410.63
2019-06-15T05:45:19.623Z,427.50
2019-06-15T05:46:19.585Z,444.38
2019-06-15T05:47:19.573Z,461.25
2019-06-15T05:48:19.505Z,489.38
2019-06-15T05:49:19.466Z,500.63
2019-06-15T05:50:19.429Z,489.38
2019-06-15T05:51:19.410Z,472.50
2019-06-15T05:52:19.345Z,466.88
2019-06-15T05:53:19.308Z,478.13
2019-06-15T05:54:19.261Z,506.25
2019-06-15T05:55:19.229Z,534.38
2019-06-15T05:56:19.210Z,568.13
2019-06-15T05:57:21.901Z,596.25
2019-06-15T05:58:19.099Z,607.50
2019-06-15T05:59:19.131Z,613.13
2019-06-15T06:00:19.019Z,618.75
2019-06-15T06:01:19.348Z,652.50
2019-06-15T06:02:21.032Z,675.00
2019-06-15T06:03:18.952Z,697.50
2019-06-15T06:04:18.958Z,708.75
2019-06-15T06:05:18.821Z,720.00
2019-06-15T06:06:18.972Z,720.00
2019-06-15T06:07:18.746Z,703.13
2019-06-15T06:08:18.789Z,669.38
2019-06-15T06:09:18.662Z,652.50
2019-06-15T06:10:18.794Z,658.13
2019-06-15T06:11:18.597Z,658.13
2019-06-15T06:12:19.660Z,646.88
2019-06-15T06:13:18.612Z,658.13
2019-06-15T06:14:18.464Z,669.38
2019-06-15T06:15:18.643Z,669.38
2019-06-15T06:16:18.382Z,663.75
2019-06-15T06:17:18.433Z,669.38
2019-06-15T06:18:18.306Z,680.63
2019-06-15T06:19:18.444Z,697.50
2019-06-15T06:20:18.229Z,708.75
2019-06-15T06:21:18.259Z,714.38
2019-06-15T06:22:18.291Z,736.88
2019-06-15T06:23:18.286Z,753.75
2019-06-15T06:24:18.077Z,770.63
2019-06-15T06:25:18.081Z,798.75
2019-06-15T06:26:17.996Z,815.63
2019-06-15T06:27:18.096Z,843.75
2019-06-15T06:28:17.911Z,855.00
2019-06-15T06:29:17.901Z,849.38
2019-06-15T06:30:17.846Z,826.88
2019-06-15T06:31:17.795Z,838.13
2019-06-15T06:32:17.757Z,871.88
2019-06-15T06:33:18.131Z,894.38
2019-06-15T06:34:17.687Z,916.88
2019-06-15T06:35:17.647Z,928.13
2019-06-15T06:36:17.601Z,939.38
2019-06-15T06:37:17.565Z,933.75
2019-06-15T06:38:17.523Z,939.38
2019-06-15T06:39:17.563Z,950.63
2019-06-15T06:40:17.447Z,956.25
2019-06-15T06:41:19.124Z,939.38
2019-06-15T06:42:17.413Z,900.00
2019-06-15T06:43:17.331Z,871.88
2019-06-15T06:44:17.407Z,894.38
2019-06-15T06:45:17.260Z,894.38
2019-06-15T06:46:17.403Z,939.38
2019-06-15T06:47:17.198Z,1018.13
2019-06-15T06:48:17.213Z,1035.00
2019-06-15T06:49:17.098Z,1051.88
2019-06-15T06:50:17.224Z,1074.38
2019-06-15T06:51:17.019Z,1113.75
2019-06-15T06:52:17.235Z,1108.13
2019-06-15T06:53:16.940Z,1080.00
2019-06-15T06:54:17.048Z,1063.13
2019-06-15T06:55:16.862Z,1074.38
2019-06-15T06:56:16.855Z,1102.50
2019-06-15T06:57:16.812Z,1141.88
2019-06-15T06:58:16.870Z,1220.63
2019-06-15T06:59:16.718Z,1254.38
2019-06-15T07:00:16.881Z,1215.00
2019-06-15T07:01:16.632Z,1164.38
2019-06-15T07:02:16.899Z,1125.00
2019-06-15T07:03:16.555Z,1130.63
2019-06-15T07:04:16.615Z,1181.25
2019-06-15T07:05:16.481Z,1243.13
2019-06-15T07:06:16.437Z,1271.25
2019-06-15T07:07:16.401Z,1299.38
2019-06-15T07:08:16.397Z,1321.88
2019-06-15T07:09:16.326Z,1333.13
2019-06-15T07:10:16.288Z,1327.50
2019-06-15T07:11:16.248Z,1293.75
2019-06-15T07:12:16.210Z,1282.50
2019-06-15T07:13:16.199Z,1265.63
2019-06-15T07:14:16.264Z,1288.13
2019-06-15T07:15:16.094Z,1310.63
2019-06-15T07:16:16.077Z,1350.00
2019-06-15T07:17:16.030Z,1383.75
2019-06-15T07:18:16.087Z,1395.00
2019-06-15T07:19:15.955Z,1400.63
2019-06-15T07:20:16.097Z,1378.13
2019-06-15T07:21:15.868Z,1378.13
2019-06-15T07:22:15.906Z,1451.25
2019-06-15T07:23:15.944Z,1451.25
2019-06-15T07:24:15.921Z,1372.50
2019-06-15T07:25:15.723Z,1305.00
2019-06-15T07:26:15.727Z,1299.38
2019-06-15T07:27:15.650Z,1338.75
2019-06-15T07:28:15.640Z,1417.50
2019-06-15T07:29:15.751Z,1468.13
2019-06-15T07:30:15.536Z,1541.25
2019-06-15T07:31:15.585Z,1546.88
2019-06-15T07:32:17.643Z,1513.13
2019-06-15T07:33:30.114Z,1530.00
2019-06-15T07:34:15.389Z,1541.25
2019-06-15T07:35:21.987Z,1575.00
2019-06-15T07:36:15.312Z,1462.50
2019-06-15T07:37:15.313Z,1428.75
2019-06-15T07:38:15.239Z,1456.88
2019-06-15T07:39:15.413Z,1411.88
2019-06-15T07:40:15.163Z,1383.75
2019-06-15T07:41:15.254Z,1501.88
2019-06-15T07:42:15.142Z,1496.25
2019-06-15T07:43:15.088Z,1513.13
2019-06-15T07:44:16.053Z,1451.25
2019-06-15T07:45:14.981Z,1845.00
2019-06-15T07:46:15.049Z,1344.38
2019-06-15T07:47:14.909Z,1316.25
2019-06-15T07:48:14.888Z,1468.13
2019-06-15T07:49:14.890Z,1721.25
2019-06-15T07:50:14.863Z,1676.25
2019-06-15T07:51:14.763Z,1276.88
2019-06-15T07:52:14.886Z,1265.63
2019-06-15T07:53:14.691Z,1299.38
2019-06-15T07:54:14.693Z,1530.00
2019-06-15T07:55:14.611Z,2480.63
2019-06-15T07:56:14.908Z,1760.63
2019-06-15T07:57:14.538Z,2520.00
2019-06-15T07:58:24.239Z,3110.63
2019-06-15T07:59:14.558Z,2823.75
2019-06-15T08:00:14.487Z,2683.13
2019-06-15T08:01:14.534Z,2953.13
2019-06-15T08:02:14.409Z,2705.63
2019-06-15T08:03:14.394Z,2638.13
2019-06-15T08:04:14.326Z,2390.63
2019-06-15T08:05:14.253Z,2941.88
2019-06-15T08:06:14.238Z,2295.00
2019-06-15T08:07:14.183Z,2345.63
2019-06-15T08:08:14.151Z,2283.75
2019-06-15T08:09:14.142Z,2137.50
2019-06-15T08:10:14.077Z,3560.63
2019-06-15T08:11:14.039Z,1794.38
2019-06-15T08:12:14.193Z,3065.63
2019-06-15T08:13:13.966Z,2745.00
2019-06-15T08:14:36.179Z,1901.25
2019-06-15T08:15:13.903Z,2205.00
2019-06-15T08:16:14.857Z,2953.13
2019-06-15T08:17:13.829Z,2919.38
2019-06-15T08:18:21.490Z,2542.50
2019-06-15T08:19:13.758Z,2385.00
2019-06-15T08:20:13.750Z,3375.00
2019-06-15T08:21:13.703Z,1918.13
2019-06-15T08:22:15.657Z,1839.38
2019-06-15T08:23:13.628Z,2379.38
2019-06-15T08:24:20.499Z,2036.25
2019-06-15T08:25:13.551Z,1861.88
2019-06-15T08:26:18.050Z,1710.00
2019-06-15T08:27:13.488Z,1642.50
2019-06-15T08:28:13.456Z,1620.00
2019-06-15T08:29:15.409Z,1575.00
2019-06-15T08:30:13.382Z,1625.63
2019-06-15T08:31:22.162Z,1558.13
2019-06-15T08:32:13.405Z,1569.38
2019-06-15T08:33:13.279Z,1473.75
2019-06-15T08:34:13.267Z,1361.25
2019-06-15T08:35:20.999Z,1299.38
2019-06-15T08:36:13.176Z,1293.75
2019-06-15T08:37:13.137Z,1338.75
2019-06-15T08:38:13.129Z,1406.25
2019-06-15T08:39:15.069Z,1518.75
2019-06-15T08:40:13.050Z,1620.00
2019-06-15T08:41:27.505Z,1816.88
2019-06-15T08:42:12.967Z,2193.75
2019-06-15T08:43:12.952Z,2272.50
2019-06-15T08:44:12.891Z,2250.00
2019-06-15T08:45:13.861Z,2160.00
2019-06-15T08:46:12.826Z,2103.75
2019-06-15T08:47:34.739Z,2030.63
2019-06-15T08:48:16.067Z,2227.50
2019-06-15T08:49:21.500Z,2216.25
2019-06-15T08:50:12.683Z,2452.50
2019-06-15T08:51:12.656Z,1923.75
2019-06-15T08:52:12.615Z,1890.00
2019-06-15T08:53:20.497Z,2041.88
2019-06-15T08:54:12.552Z,1850.63
2019-06-15T08:55:12.528Z,1912.50
2019-06-15T08:56:12.471Z,1878.75
2019-06-15T08:57:13.444Z,1732.50
2019-06-15T08:58:23.030Z,1839.38
2019-06-15T08:59:13.372Z,2193.75
2019-06-15T09:00:12.331Z,2705.63
2019-06-15T09:01:40.013Z,4246.88
2019-06-15T09:02:12.267Z,4100.63
2019-06-15T09:03:12.248Z,3886.88
2019-06-15T09:04:19.015Z,3341.25
2019-06-15T09:05:12.162Z,5900.63
2019-06-15T09:06:13.121Z,3943.13
2019-06-15T09:07:12.089Z,3661.88
2019-06-15T09:08:16.128Z,2643.75
2019-06-15T09:09:12.035Z,4708.13
2019-06-15T09:10:12.992Z,2581.88
2019-06-15T09:11:11.992Z,5793.75
2019-06-15T09:12:13.919Z,2750.63
2019-06-15T09:13:11.923Z,2998.13
2019-06-15T09:14:49.500Z,6429.38
2019-06-15T09:15:11.830Z,2733.75
2019-06-15T09:16:11.798Z,2058.75
2019-06-15T09:17:11.766Z,1760.63
2019-06-15T09:18:11.737Z,1850.63
2019-06-15T09:19:12.740Z,2199.38
2019-06-15T09:20:11.676Z,3138.75
2019-06-15T09:21:12.705Z,2221.88
2019-06-15T09:22:11.608Z,2008.13
2019-06-15T09:23:33.775Z,1850.63
2019-06-15T09:24:11.543Z,1940.63
2019-06-15T09:25:11.512Z,2283.75
2019-06-15T09:33:23.805Z,4140.00
2019-06-15T09:34:22.422Z,2520.00
2019-06-15T09:35:22.391Z,6778.13
2019-06-15T09:36:22.360Z,6750.00
2019-06-15T09:37:22.330Z,2418.75
2019-06-15T09:38:22.303Z,2199.38
2019-06-15T09:39:31.820Z,2047.50
2019-06-15T09:40:22.236Z,2176.88
2019-06-15T09:41:22.233Z,2210.63
2019-06-15T09:42:22.192Z,2171.25
2019-06-15T09:43:22.144Z,2109.38
2019-06-15T09:44:22.114Z,2300.63
2019-06-15T09:45:22.109Z,2761.88
2019-06-15T09:46:22.053Z,4089.38
2019-06-15T09:47:22.027Z,2896.88
2019-06-15T09:48:21.993Z,2390.63
2019-06-15T09:49:21.964Z,2283.75
2019-06-15T09:50:21.933Z,2328.75
2019-06-15T09:51:21.934Z,2430.00
2019-06-15T09:52:21.877Z,5113.13
2019-06-15T09:53:21.842Z,2767.50
2019-06-15T09:54:21.809Z,2047.50
2019-06-15T09:55:21.779Z,1575.00
2019-06-15T09:56:21.751Z,1642.50
2019-06-15T09:57:21.751Z,1918.13
2019-06-15T09:58:21.698Z,2025.00
2019-06-15T09:59:25.980Z,2345.63
2019-06-15T10:00:21.626Z,2604.38
2019-06-15T10:01:21.599Z,2508.75
2019-06-15T10:02:21.566Z,2148.75
2019-06-15T10:03:21.610Z,2047.50
2019-06-15T10:04:21.504Z,1884.38
2019-06-15T10:05:21.471Z,1749.38
2019-06-15T10:06:21.441Z,1704.38
2019-06-15T10:07:21.411Z,1755.00
2019-06-15T10:08:21.378Z,1839.38
2019-06-15T10:09:21.378Z,2030.63
2019-06-15T10:10:21.317Z,1974.38
2019-06-15T10:11:21.283Z,1923.75
2019-06-15T10:12:21.251Z,2053.13
2019-06-15T10:13:21.221Z,4938.75
2019-06-15T10:14:21.189Z,4629.38
2019-06-15T10:15:21.180Z,5540.63
2019-06-15T10:16:21.128Z,8235.00
2019-06-15T10:17:21.092Z,7813.13
2019-06-15T10:18:21.063Z,7290.00
2019-06-15T10:19:21.032Z,7436.25
2019-06-15T10:20:21.001Z,7245.00
2019-06-15T10:21:20.997Z,6913.13
2019-06-15T10:22:20.944Z,6266.25
2019-06-15T10:23:20.928Z,5771.25
2019-06-15T10:24:20.919Z,6598.13
2019-06-15T10:25:20.860Z,6789.38
2019-06-15T10:26:20.839Z,6744.38
2019-06-15T10:27:20.836Z,6485.63
2019-06-15T10:28:20.778Z,6232.50
2019-06-15T10:29:20.770Z,6069.38
2019-06-15T10:30:20.728Z,6080.63
2019-06-15T10:31:20.702Z,6553.13
2019-06-15T10:32:20.680Z,6879.38
2019-06-15T10:33:20.690Z,7239.38
2019-06-15T10:34:20.625Z,7155.00
2019-06-15T10:35:20.602Z,7284.38
2019-06-15T10:36:20.577Z,7453.13
2019-06-15T10:37:20.554Z,7627.50
2019-06-15T10:38:20.529Z,5911.88
2019-06-15T10:39:20.530Z,2604.38
2019-06-15T10:40:20.484Z,2964.38
2019-06-15T10:41:20.458Z,2250.00
2019-06-15T10:42:22.776Z,2278.13
2019-06-15T10:43:20.411Z,1783.13
2019-06-15T10:44:20.391Z,2165.63
2019-06-15T10:45:20.401Z,6935.63
2019-06-15T10:46:20.343Z,3954.38
2019-06-15T10:47:20.317Z,6305.63
2019-06-15T10:48:20.300Z,6654.38
2019-06-15T10:49:20.265Z,6558.75
2019-06-15T10:50:20.241Z,6485.63
2019-06-15T10:51:20.243Z,6485.63
2019-06-15T10:52:20.190Z,6609.38
2019-06-15T10:53:20.165Z,6862.50
2019-06-15T10:54:20.141Z,6952.50
2019-06-15T10:55:20.116Z,5062.50
2019-06-15T10:56:20.093Z,5208.75
2019-06-15T10:57:20.099Z,3774.38
2019-06-15T10:58:20.044Z,4336.88
2019-06-15T10:59:20.020Z,2362.50
2019-06-15T11:00:19.997Z,2019.38
2019-06-15T11:01:19.976Z,1698.75
2019-06-15T11:02:19.945Z,1586.25
2019-06-15T11:03:19.945Z,1603.13
2019-06-15T11:04:19.900Z,1704.38
2019-06-15T11:05:19.895Z,1923.75
2019-06-15T11:06:19.844Z,2233.13
2019-06-15T11:07:19.824Z,3003.75
2019-06-15T11:08:19.796Z,5906.25
2019-06-15T11:09:19.766Z,6907.50
2019-06-15T11:10:19.764Z,7458.75
2019-06-15T11:11:21.647Z,7357.50
2019-06-15T11:12:19.689Z,7464.38
2019-06-15T11:13:19.707Z,7132.50
2019-06-15T11:14:19.635Z,4719.38
2019-06-15T11:15:19.633Z,4556.25
2019-06-15T11:16:19.583Z,4893.75
2019-06-15T11:17:19.557Z,6873.75
2019-06-15T11:18:19.533Z,6187.50
2019-06-15T11:19:19.527Z,6350.63
2019-06-15T11:20:19.482Z,6800.63
2019-06-15T11:21:19.464Z,7098.75
2019-06-15T11:22:19.434Z,7458.75
2019-06-15T11:23:19.411Z,7543.13
2019-06-15T11:24:19.507Z,7717.50
2019-06-15T11:25:19.363Z,6598.13
2019-06-15T11:26:19.341Z,2936.25
2019-06-15T11:27:19.316Z,3380.63
2019-06-15T11:28:19.293Z,3813.75
2019-06-15T11:29:19.271Z,2278.13
2019-06-15T11:30:19.275Z,2188.13
2019-06-15T11:31:19.226Z,2272.50
2019-06-15T11:32:19.205Z,2233.13
2019-06-15T11:33:19.178Z,2520.00
2019-06-15T11:34:19.160Z,2311.88
2019-06-15T11:35:19.139Z,2272.50
2019-06-15T11:36:19.131Z,2171.25
2019-06-15T11:37:19.082Z,2025.00
2019-06-15T11:38:19.057Z,2047.50
2019-06-15T11:39:19.031Z,2570.63
2019-06-15T11:40:19.006Z,2846.25
2019-06-15T11:41:18.981Z,2238.75
2019-06-15T11:42:18.976Z,2345.63
2019-06-15T11:43:18.926Z,7425.00
2019-06-15T11:44:18.902Z,7458.75
2019-06-15T11:45:18.878Z,3138.75
2019-06-15T11:46:18.848Z,6817.50
2019-06-15T11:47:18.823Z,6519.38
2019-06-15T11:48:18.819Z,6975.00
2019-06-15T11:49:18.770Z,7430.63
2019-06-15T11:50:18.746Z,7441.88
2019-06-15T11:51:18.717Z,2317.50
2019-06-15T11:52:18.692Z,1659.38
2019-06-15T11:53:18.672Z,1625.63
2019-06-15T11:54:18.730Z,1676.25
2019-06-15T11:55:20.076Z,1906.88
2019-06-15T11:56:18.647Z,4173.75
2019-06-15T11:57:18.563Z,2238.75
2019-06-15T11:58:32.858Z,1839.38
2019-06-15T11:59:18.517Z,1788.75
2019-06-15T12:00:30.811Z,1631.25
2019-06-15T12:01:19.041Z,1670.63
2019-06-15T12:02:18.434Z,2300.63
2019-06-15T12:03:18.402Z,6688.13
2019-06-15T12:04:18.455Z,6491.25
2019-06-15T12:05:18.358Z,5726.25
2019-06-15T12:06:18.351Z,2154.38
2019-06-15T12:07:18.338Z,3943.13
2019-06-15T12:08:18.269Z,2829.38
2019-06-15T12:09:18.241Z,6789.38
2019-06-15T12:10:18.217Z,2221.88
2019-06-15T12:11:18.185Z,1788.75
2019-06-15T12:12:18.186Z,1805.63
2019-06-15T12:13:18.130Z,2300.63
2019-06-15T12:14:18.103Z,6345.00
2019-06-15T12:15:18.084Z,3931.88
2019-06-15T12:16:18.052Z,5619.38
2019-06-15T12:17:18.020Z,2120.63
2019-06-15T12:18:18.021Z,1980.00
2019-06-15T12:19:17.962Z,1743.75
2019-06-15T12:20:17.947Z,2289.38
2019-06-15T12:21:17.906Z,5051.25
2019-06-15T12:22:17.889Z,5298.75
2019-06-15T12:23:17.855Z,5220.00
2019-06-15T12:24:17.869Z,5484.38
2019-06-15T12:25:17.800Z,5135.63
2019-06-15T12:26:17.779Z,5231.25
2019-06-15T12:27:17.767Z,5551.88
2019-06-15T12:28:17.720Z,6148.13
2019-06-15T12:29:17.697Z,6530.63
2019-06-15T12:30:17.691Z,6654.38
2019-06-15T12:31:17.638Z,6823.13
2019-06-15T12:32:17.646Z,6744.38
2019-06-15T12:33:17.594Z,6738.75
2019-06-15T12:34:20.418Z,6716.25
2019-06-15T12:35:17.547Z,6682.50
2019-06-15T12:36:19.464Z,6654.38
2019-06-15T12:37:17.495Z,6592.50
2019-06-15T12:38:17.497Z,6609.38
2019-06-15T12:39:17.458Z,6671.25